createdAt,value
2018-01-28T00:00:07.746Z,23.15
2018-01-28T00:02:34.537Z,19.40
2018-01-28T00:05:01.272Z,21.35
2018-01-28T00:07:28.010Z,24.90
2018-01-28T00:09:54.740Z,20.67
2018-01-28T00:12:21.494Z,20.70
2018-01-28T00:14:48.217Z,20.77
2018-01-28T00:17:14.988Z,21.05
2018-01-28T00:19:41.709Z,22.70
2018-01-28T00:22:08.474Z,19.10
2018-01-28T00:24:35.221Z,21.87
2018-01-28T00:27:01.956Z,20.73
2018-01-28T00:29:28.685Z,19.55
2018-01-28T00:31:55.409Z,21.48
2018-01-28T00:34:22.137Z,20.15
2018-01-28T00:36:48.894Z,20.42
2018-01-28T00:39:15.627Z,21.12
2018-01-28T00:41:42.360Z,21.75
2018-01-28T00:44:09.100Z,20.75
2018-01-28T00:46:35.808Z,22.23
2018-01-28T00:49:02.521Z,21.80
2018-01-28T00:51:29.274Z,21.03
2018-01-28T00:53:56.006Z,21.08
2018-01-28T00:56:22.744Z,19.48
2018-01-28T00:58:49.484Z,21.42
2018-01-28T01:01:16.237Z,20.80
2018-01-28T01:03:42.964Z,20.42
2018-01-28T01:06:09.723Z,20.08
2018-01-28T01:08:36.445Z,20.92
2018-01-28T01:11:03.201Z,22.02
2018-01-28T01:13:29.925Z,22.33
2018-01-28T01:15:56.642Z,21.20
2018-01-28T01:18:23.372Z,21.30
2018-01-28T01:20:50.093Z,23.40
2018-01-28T01:23:16.828Z,23.12
2018-01-28T01:25:43.565Z,23.35
2018-01-28T01:28:10.295Z,23.48
2018-01-28T01:30:37.020Z,20.73
2018-01-28T01:33:03.752Z,22.33
2018-01-28T01:35:30.489Z,24.15
2018-01-28T01:37:57.219Z,21.83
2018-01-28T01:40:23.941Z,22.50
2018-01-28T01:42:50.701Z,22.47
2018-01-28T01:45:17.454Z,24.12
2018-01-28T01:47:44.199Z,22.77
2018-01-28T01:50:10.926Z,23.42
2018-01-28T01:52:37.672Z,23.77
2018-01-28T01:55:04.409Z,22.90
2018-01-28T01:57:31.162Z,20.98
2018-01-28T01:59:57.892Z,21.50
2018-01-28T02:02:24.634Z,22.65
2018-01-28T02:04:51.353Z,23.67
2018-01-28T02:07:18.088Z,24.27
2018-01-28T02:09:44.816Z,23.13
2018-01-28T02:12:11.539Z,21.67
2018-01-28T02:14:38.435Z,21.98
2018-01-28T02:17:05.154Z,23.30
2018-01-28T02:19:31.882Z,22.85
2018-01-28T02:21:58.634Z,22.10
2018-01-28T02:24:25.416Z,21.37
2018-01-28T02:26:52.113Z,21.62
2018-01-28T02:29:18.843Z,23.27
2018-01-28T02:31:45.584Z,22.50
2018-01-28T02:34:12.335Z,22.65
2018-01-28T02:36:39.055Z,22.23
2018-01-28T02:39:05.785Z,21.42
2018-01-28T02:41:32.514Z,21.30
2018-01-28T02:43:59.238Z,21.40
2018-01-28T02:46:25.973Z,23.92
2018-01-28T02:48:52.707Z,23.20
2018-01-28T02:51:19.520Z,25.73
2018-01-28T02:53:46.269Z,23.75
2018-01-28T02:56:13.010Z,25.42
2018-01-28T02:58:39.730Z,23.37
2018-01-28T03:01:06.450Z,24.83
2018-01-28T03:03:33.190Z,21.87
2018-01-28T03:05:59.902Z,22.20
2018-01-28T03:08:26.638Z,22.77
2018-01-28T03:10:53.373Z,23.63
2018-01-28T03:13:20.116Z,21.33
2018-01-28T03:15:46.838Z,20.70
2018-01-28T03:18:13.567Z,20.87
2018-01-28T03:20:40.302Z,23.20
2018-01-28T03:23:07.013Z,21.10
2018-01-28T03:25:33.722Z,20.93
2018-01-28T03:28:00.466Z,20.63
2018-01-28T03:30:27.179Z,23.30
2018-01-28T03:32:53.904Z,21.23
2018-01-28T03:35:20.649Z,20.77
2018-01-28T03:37:47.395Z,21.23
2018-01-28T03:40:14.125Z,22.15
2018-01-28T03:42:40.849Z,21.70
2018-01-28T03:45:07.571Z,21.90
2018-01-28T03:47:34.329Z,21.50
2018-01-28T03:50:01.053Z,20.97
2018-01-28T03:52:27.804Z,22.60
2018-01-28T03:54:54.524Z,21.83
2018-01-28T03:57:21.238Z,21.33
2018-01-28T03:59:47.975Z,22.30
2018-01-28T04:02:14.717Z,21.03
2018-01-28T04:04:41.451Z,21.67
2018-01-28T04:07:08.189Z,21.07
2018-01-28T04:09:34.934Z,23.45
2018-01-28T04:12:01.654Z,20.97
2018-01-28T04:14:28.418Z,22.60
2018-01-28T04:16:55.138Z,21.07
2018-01-28T04:19:21.910Z,22.13
2018-01-28T04:21:48.635Z,21.17
2018-01-28T04:24:15.342Z,21.00
2018-01-28T04:26:42.074Z,22.97
2018-01-28T04:29:08.786Z,20.60
2018-01-28T04:31:35.557Z,21.52
2018-01-28T04:34:02.266Z,22.13
2018-01-28T04:36:28.990Z,22.75
2018-01-28T04:38:55.738Z,22.67
2018-01-28T04:41:22.482Z,21.52
2018-01-28T04:43:49.222Z,22.40
2018-01-28T04:46:15.939Z,21.40
2018-01-28T04:48:42.676Z,22.47
2018-01-28T04:51:09.404Z,23.15
2018-01-28T04:53:36.141Z,21.70
2018-01-28T04:56:02.870Z,21.85
2018-01-28T04:58:29.642Z,22.48
2018-01-28T05:00:56.401Z,20.70
2018-01-28T05:03:23.125Z,21.73
2018-01-28T05:05:49.853Z,20.65
2018-01-28T05:08:16.603Z,24.17
2018-01-28T05:10:43.363Z,20.67
2018-01-28T05:13:10.133Z,20.60
2018-01-28T05:15:36.889Z,21.05
2018-01-28T05:18:03.616Z,22.75
2018-01-28T05:20:30.378Z,20.58
2018-01-28T05:22:57.127Z,20.53
2018-01-28T05:25:23.850Z,21.07
2018-01-28T05:27:50.587Z,23.85
2018-01-28T05:30:17.317Z,21.42
2018-01-28T05:32:44.062Z,22.00
2018-01-28T05:35:10.788Z,22.25
2018-01-28T05:37:37.492Z,21.33
2018-01-28T05:40:04.254Z,22.75
2018-01-28T05:42:30.996Z,21.03
2018-01-28T05:44:57.713Z,21.50
2018-01-28T05:47:24.440Z,20.80
2018-01-28T05:49:51.165Z,24.20
2018-01-28T05:52:17.884Z,20.48
2018-01-28T05:54:44.638Z,22.42
2018-01-28T05:57:11.393Z,20.93
2018-01-28T05:59:38.113Z,21.40
2018-01-28T06:02:04.876Z,22.65
2018-01-28T06:04:31.589Z,21.77
2018-01-28T06:06:58.341Z,22.00
2018-01-28T06:09:25.082Z,21.40
2018-01-28T06:11:51.816Z,21.90
2018-01-28T06:14:18.533Z,22.27
2018-01-28T06:16:45.256Z,23.50
2018-01-28T06:19:12.008Z,21.30
2018-01-28T06:21:38.723Z,21.97
2018-01-28T06:24:05.445Z,22.75
2018-01-28T06:26:32.205Z,25.23
2018-01-28T06:28:59.021Z,23.45
2018-01-28T06:31:25.761Z,23.33
2018-01-28T06:33:52.526Z,23.80
2018-01-28T06:36:19.252Z,21.63
2018-01-28T06:38:45.983Z,23.92
2018-01-28T06:41:12.725Z,22.95
2018-01-28T06:43:39.453Z,22.77
2018-01-28T06:46:06.176Z,24.20
2018-01-28T06:48:32.910Z,19.60
2018-01-28T06:50:59.659Z,21.80
2018-01-28T06:53:26.395Z,23.33
2018-01-28T06:55:53.129Z,20.83
2018-01-28T06:58:19.856Z,22.87
2018-01-28T07:00:46.579Z,22.83
2018-01-28T07:03:13.322Z,20.85
2018-01-28T07:05:40.056Z,23.37
2018-01-28T07:08:06.767Z,23.83
2018-01-28T07:10:33.489Z,23.20
2018-01-28T07:13:00.244Z,22.87
2018-01-28T07:15:26.973Z,22.40
2018-01-28T07:17:53.771Z,24.42
2018-01-28T07:20:21.473Z,23.93
2018-01-28T07:22:48.231Z,24.43
2018-01-28T07:25:14.946Z,22.70
2018-01-28T07:27:41.704Z,24.03
2018-01-28T07:30:08.432Z,22.70
2018-01-28T07:32:35.149Z,22.73
2018-01-28T07:35:01.889Z,24.97
2018-01-28T07:37:28.612Z,22.83
2018-01-28T07:39:55.317Z,23.70
2018-01-28T07:42:22.063Z,22.63
2018-01-28T07:44:48.786Z,22.93
2018-01-28T07:47:15.504Z,22.07
2018-01-28T07:49:42.236Z,23.90
2018-01-28T07:52:08.954Z,22.40
2018-01-28T07:54:35.709Z,24.80
2018-01-28T07:57:02.474Z,22.17
2018-01-28T07:59:29.212Z,21.60
2018-01-28T08:01:55.949Z,21.60
2018-01-28T08:04:22.690Z,22.60
2018-01-28T08:06:49.428Z,21.00
2018-01-28T08:09:16.204Z,21.50
2018-01-28T08:11:49.576Z,23.60
2018-01-28T08:14:31.193Z,21.70
2018-01-28T08:16:57.941Z,22.80
2018-01-28T08:19:24.766Z,20.97
2018-01-28T08:21:51.517Z,19.57
2018-01-28T08:24:19.115Z,73.60
2018-01-28T08:26:51.858Z,30.00
2018-01-28T08:29:19.356Z,24.90
2018-01-28T08:31:46.072Z,20.50
2018-01-28T08:34:12.813Z,22.87
2018-01-28T08:36:39.576Z,25.00
2018-01-28T08:39:06.329Z,21.17
2018-01-28T08:41:33.085Z,21.50
2018-01-28T08:43:59.815Z,21.00
2018-01-28T08:46:26.569Z,21.80
2018-01-28T08:48:53.292Z,19.97
2018-01-28T08:51:20.001Z,21.53
2018-01-28T08:53:46.760Z,22.57
2018-01-28T08:56:13.487Z,22.00
2018-01-28T08:58:40.224Z,23.20
2018-01-28T09:01:06.946Z,20.77
2018-01-28T09:03:34.261Z,21.43
2018-01-28T09:06:01.006Z,22.60
2018-01-28T09:08:27.730Z,22.13
2018-01-28T09:10:54.449Z,23.67
2018-01-28T09:13:21.185Z,21.37
2018-01-28T09:15:47.914Z,23.00
2018-01-28T09:18:14.661Z,22.50
2018-01-28T09:20:41.389Z,21.40
2018-01-28T09:23:08.151Z,23.57
2018-01-28T09:25:34.888Z,22.83
2018-01-28T09:28:01.641Z,24.87
2018-01-28T09:30:28.388Z,23.20
2018-01-28T09:32:55.111Z,22.77
2018-01-28T09:35:21.829Z,23.17
2018-01-28T09:37:48.569Z,21.23
2018-01-28T09:40:15.298Z,23.47
2018-01-28T09:42:42.020Z,24.57
2018-01-28T09:45:08.729Z,21.63
2018-01-28T09:47:35.504Z,24.53
2018-01-28T09:50:02.253Z,23.07
2018-01-28T09:52:28.970Z,22.37
2018-01-28T09:54:55.759Z,22.03
2018-01-28T09:57:22.488Z,24.43
2018-01-28T09:59:49.244Z,24.17
2018-01-28T10:02:15.999Z,23.23
2018-01-28T10:04:42.718Z,24.40
2018-01-28T10:07:09.450Z,22.07
2018-01-28T10:09:36.167Z,22.67
2018-01-28T10:12:02.939Z,23.70
2018-01-28T10:14:29.695Z,23.57
2018-01-28T10:16:56.420Z,25.73
2018-01-28T10:19:23.145Z,21.57
2018-01-28T10:21:49.875Z,24.73
2018-01-28T10:24:16.626Z,23.63
2018-01-28T10:26:43.365Z,22.93
2018-01-28T10:29:10.099Z,25.00
2018-01-28T10:31:36.824Z,24.27
2018-01-28T10:34:03.579Z,25.80
2018-01-28T10:36:30.337Z,25.77
2018-01-28T10:38:57.069Z,24.67
2018-01-28T10:41:23.815Z,25.03
2018-01-28T10:43:50.558Z,25.43
2018-01-28T10:46:17.337Z,25.87
2018-01-28T10:48:44.053Z,26.70
2018-01-28T10:51:10.774Z,24.63
2018-01-28T10:53:37.554Z,25.80
2018-01-28T10:56:04.295Z,26.27
2018-01-28T10:58:31.011Z,26.23
2018-01-28T11:00:57.780Z,26.53
2018-01-28T11:03:24.493Z,25.90
2018-01-28T11:05:51.250Z,26.50
2018-01-28T11:08:18.003Z,24.83
2018-01-28T11:10:44.741Z,26.77
2018-01-28T11:13:11.475Z,25.20
2018-01-28T11:15:38.230Z,26.00
2018-01-28T11:18:04.949Z,24.90
2018-01-28T11:20:31.679Z,25.27
2018-01-28T11:22:58.455Z,27.67
2018-01-28T11:25:25.184Z,26.00
2018-01-28T11:27:51.915Z,27.87
2018-01-28T11:30:18.637Z,27.90
2018-01-28T11:32:45.361Z,29.73
2018-01-28T11:35:12.080Z,28.60
2018-01-28T11:37:38.803Z,29.57
2018-01-28T11:40:05.547Z,28.07
2018-01-28T11:42:32.281Z,26.80
2018-01-28T11:44:59.021Z,28.47
2018-01-28T11:47:25.729Z,30.50
2018-01-28T11:49:52.459Z,28.13
2018-01-28T11:52:19.187Z,29.37
2018-01-28T11:54:45.925Z,27.40
2018-01-28T11:57:12.649Z,26.93
2018-01-28T11:59:39.370Z,29.43
2018-01-28T12:02:06.095Z,26.63
2018-01-28T12:04:32.841Z,30.30
2018-01-28T12:06:59.634Z,29.30
2018-01-28T12:09:26.385Z,29.27
2018-01-28T12:11:53.114Z,29.20
2018-01-28T12:14:19.835Z,27.20
2018-01-28T12:16:46.607Z,30.43
2018-01-28T12:19:13.334Z,30.60
2018-01-28T12:21:40.081Z,28.60
2018-01-28T12:24:06.821Z,30.03
2018-01-28T12:26:33.540Z,29.00
2018-01-28T12:29:00.274Z,27.23
2018-01-28T12:31:27.017Z,27.10
2018-01-28T12:33:53.774Z,30.20
2018-01-28T12:36:20.513Z,27.90
2018-01-28T12:38:47.244Z,29.00
2018-01-28T12:41:13.975Z,30.70
2018-01-28T12:43:40.744Z,29.10
2018-01-28T12:46:07.457Z,31.13
2018-01-28T12:48:34.213Z,30.50
2018-01-28T12:51:00.947Z,29.20
2018-01-28T12:53:27.657Z,28.03
2018-01-28T12:55:54.406Z,28.70
2018-01-28T12:58:21.123Z,27.70
2018-01-28T13:00:47.840Z,28.30
2018-01-28T13:03:14.586Z,31.23
2018-01-28T13:05:41.304Z,29.63
2018-01-28T13:08:08.021Z,29.67
2018-01-28T13:10:34.763Z,32.23
2018-01-28T13:13:01.479Z,27.87
2018-01-28T13:15:28.223Z,29.47
2018-01-28T13:17:54.965Z,28.30
2018-01-28T13:20:21.703Z,29.47
2018-01-28T13:22:48.419Z,26.90
2018-01-28T13:25:15.135Z,28.37
2018-01-28T13:27:41.896Z,30.53
2018-01-28T13:30:08.689Z,28.93
2018-01-28T13:32:35.445Z,29.37
2018-01-28T13:35:02.185Z,28.27
2018-01-28T13:37:28.909Z,28.53
2018-01-28T13:39:55.665Z,29.77
2018-01-28T13:42:22.436Z,28.73
2018-01-28T13:44:49.145Z,27.73
2018-01-28T13:47:15.922Z,28.57
2018-01-28T13:49:42.669Z,28.57
2018-01-28T13:52:09.409Z,28.57
2018-01-28T13:54:36.150Z,27.77
2018-01-28T13:57:02.911Z,30.80
2018-01-28T13:59:29.647Z,31.77
2018-01-28T14:01:56.392Z,29.87
2018-01-28T14:04:23.138Z,29.40
2018-01-28T14:06:49.877Z,31.00
2018-01-28T14:09:16.597Z,30.50
2018-01-28T14:11:43.329Z,31.27
2018-01-28T14:14:10.077Z,30.80
2018-01-28T14:16:36.804Z,29.80
2018-01-28T14:19:03.573Z,28.57
2018-01-28T14:21:30.338Z,30.20
2018-01-28T14:23:57.066Z,27.17
2018-01-28T14:26:23.863Z,27.77
2018-01-28T14:28:50.659Z,29.67
2018-01-28T14:31:17.394Z,27.40
2018-01-28T14:33:44.171Z,27.70
2018-01-28T14:36:10.919Z,26.67
2018-01-28T14:38:37.664Z,27.53
2018-01-28T14:41:04.398Z,25.60
2018-01-28T14:43:31.158Z,29.53
2018-01-28T14:45:57.904Z,27.10
2018-01-28T14:48:24.676Z,29.07
2018-01-28T14:50:51.414Z,28.77
2018-01-28T14:53:18.155Z,27.23
2018-01-28T14:55:44.928Z,28.97
2018-01-28T14:58:11.660Z,28.40
2018-01-28T15:00:38.405Z,27.00
2018-01-28T15:03:05.142Z,28.80
2018-01-28T15:05:31.888Z,28.47
2018-01-28T15:07:58.650Z,28.50
2018-01-28T15:10:25.399Z,28.90
2018-01-28T15:12:52.150Z,30.17
2018-01-28T15:15:18.882Z,30.40
2018-01-28T15:17:45.594Z,29.07
2018-01-28T15:20:12.323Z,29.30
2018-01-28T15:22:39.175Z,28.70
2018-01-28T15:25:05.893Z,31.87
2018-01-28T15:27:32.647Z,30.73
2018-01-28T15:29:59.366Z,28.57
2018-01-28T15:32:26.124Z,30.50
2018-01-28T15:34:52.878Z,32.37
2018-01-28T15:37:19.603Z,30.10
2018-01-28T15:39:46.358Z,32.30
2018-01-28T15:42:13.085Z,30.47
2018-01-28T15:44:39.830Z,32.07
2018-01-28T15:47:06.559Z,30.90
2018-01-28T15:49:33.310Z,33.80
2018-01-28T15:52:00.050Z,33.37
2018-01-28T15:54:26.821Z,33.80
2018-01-28T15:56:53.552Z,31.00
2018-01-28T15:59:20.315Z,29.70
2018-01-28T16:01:47.071Z,31.43
2018-01-28T16:04:13.842Z,30.47
2018-01-28T16:06:40.590Z,32.73
2018-01-28T16:09:07.317Z,29.73
2018-01-28T16:11:34.070Z,30.13
2018-01-28T16:14:00.794Z,29.60
2018-01-28T16:16:27.613Z,30.00
2018-01-28T16:18:54.486Z,31.83
2018-01-28T16:21:21.212Z,31.50
2018-01-28T16:23:47.959Z,31.97
2018-01-28T16:26:14.720Z,33.07
2018-01-28T16:28:41.454Z,31.87
2018-01-28T16:31:08.193Z,31.70
2018-01-28T16:33:34.940Z,32.17
2018-01-28T16:36:01.679Z,32.90
2018-01-28T16:38:28.452Z,34.83
2018-01-28T16:40:55.201Z,35.00
2018-01-28T16:43:22.006Z,32.70
2018-01-28T16:45:48.738Z,32.30
2018-01-28T16:48:15.458Z,31.23
2018-01-28T16:50:42.190Z,32.97
2018-01-28T16:53:08.969Z,33.77
2018-01-28T16:55:35.718Z,30.70
2018-01-28T16:58:02.469Z,30.90
2018-01-28T17:00:29.201Z,32.23
2018-01-28T17:02:55.956Z,34.70
2018-01-28T17:05:22.668Z,32.97
2018-01-28T17:07:49.538Z,34.90
2018-01-28T17:10:16.290Z,34.00
2018-01-28T17:12:43.013Z,36.40
2018-01-28T17:15:09.746Z,35.73
2018-01-28T17:17:36.475Z,34.10
2018-01-28T17:20:03.247Z,35.60
2018-01-28T17:22:29.993Z,33.03
2018-01-28T17:24:56.754Z,33.47
2018-01-28T17:27:23.492Z,36.07
2018-01-28T17:29:50.240Z,34.73
2018-01-28T17:32:16.971Z,36.97
2018-01-28T17:34:43.722Z,38.00
2018-01-28T17:37:10.443Z,35.73
2018-01-28T17:39:37.176Z,36.70
2018-01-28T17:42:03.897Z,34.00
2018-01-28T17:44:30.683Z,34.57
2018-01-28T17:46:57.408Z,36.37
2018-01-28T17:49:24.115Z,36.53
2018-01-28T17:51:50.849Z,38.80
2018-01-28T17:54:17.582Z,35.50
2018-01-28T17:56:44.297Z,34.53
2018-01-28T17:59:11.093Z,35.40
2018-01-28T18:01:37.824Z,36.10
2018-01-28T18:04:04.545Z,35.80
2018-01-28T18:06:31.306Z,36.50
2018-01-28T18:08:58.047Z,35.23
2018-01-28T18:11:24.851Z,34.53
2018-01-28T18:13:51.612Z,34.07
2018-01-28T18:16:18.346Z,34.60
2018-01-28T18:18:45.197Z,35.07
2018-01-28T18:21:11.940Z,36.07
2018-01-28T18:23:38.681Z,35.87
2018-01-28T18:26:05.437Z,36.20
2018-01-28T18:28:32.171Z,35.23
2018-01-28T18:30:58.932Z,36.20
2018-01-28T18:33:25.654Z,34.00
2018-01-28T18:35:52.396Z,32.67
2018-01-28T18:38:19.128Z,35.67
2018-01-28T18:40:45.858Z,42.43
2018-01-28T18:43:12.595Z,37.03
2018-01-28T18:45:39.310Z,36.27
2018-01-28T18:48:06.029Z,34.93
2018-01-28T18:50:32.761Z,35.60
2018-01-28T18:52:59.515Z,35.97
2018-01-28T18:55:26.249Z,34.47
2018-01-28T18:57:52.976Z,34.90
2018-01-28T19:00:19.698Z,35.30
2018-01-28T19:02:46.427Z,35.30
2018-01-28T19:05:13.286Z,35.93
2018-01-28T19:07:39.997Z,45.43
2018-01-28T19:10:06.745Z,36.40
2018-01-28T19:12:33.471Z,36.50
2018-01-28T19:15:00.199Z,37.77
2018-01-28T19:17:26.938Z,39.73
2018-01-28T19:19:53.653Z,39.10
2018-01-28T19:22:20.383Z,37.50
2018-01-28T19:24:47.128Z,37.97
2018-01-28T19:27:13.847Z,40.57
2018-01-28T19:29:40.576Z,36.53
2018-01-28T19:32:07.325Z,38.50
2018-01-28T19:34:34.042Z,36.70
2018-01-28T19:37:00.766Z,34.53
2018-01-28T19:39:27.494Z,35.63
2018-01-28T19:41:54.220Z,36.50
2018-01-28T19:44:20.932Z,36.70
2018-01-28T19:46:47.708Z,35.10
2018-01-28T19:49:16.858Z,39.10
2018-01-28T19:51:43.564Z,35.60
2018-01-28T19:54:10.295Z,37.67
2018-01-28T19:56:37.046Z,33.00
2018-01-28T19:59:03.801Z,34.37
2018-01-28T20:01:32.310Z,35.00
2018-01-28T20:03:59.392Z,32.30
2018-01-28T20:06:26.297Z,33.10
2018-01-28T20:08:53.043Z,30.97
2018-01-28T20:11:19.760Z,30.73
2018-01-28T20:13:46.486Z,34.67
2018-01-28T20:16:13.237Z,34.90
2018-01-28T20:18:39.964Z,33.57
2018-01-28T20:21:06.727Z,33.23
2018-01-28T20:23:33.486Z,35.60
2018-01-28T20:26:00.220Z,34.50
2018-01-28T20:28:26.972Z,33.70
2018-01-28T20:30:53.711Z,33.30
2018-01-28T20:33:20.441Z,33.87
2018-01-28T20:35:47.163Z,33.10
2018-01-28T20:38:13.909Z,35.23
2018-01-28T20:40:40.681Z,34.47
2018-01-28T20:43:07.508Z,34.17
2018-01-28T20:45:34.265Z,32.23
2018-01-28T20:48:01.007Z,33.10
2018-01-28T20:50:27.734Z,32.93
2018-01-28T20:52:54.463Z,30.10
2018-01-28T20:55:23.996Z,30.77
2018-01-28T20:57:50.926Z,32.10
2018-01-28T21:00:22.926Z,32.40
2018-01-28T21:02:49.651Z,32.37
2018-01-28T21:05:16.409Z,32.37
2018-01-28T21:07:43.146Z,33.60
2018-01-28T21:10:09.887Z,32.50
2018-01-28T21:12:36.613Z,34.97
2018-01-28T21:15:03.438Z,31.40
2018-01-28T21:17:30.253Z,31.33
2018-01-28T21:19:56.971Z,33.13
2018-01-28T21:22:23.709Z,33.33
2018-01-28T21:24:50.465Z,35.90
2018-01-28T21:27:17.244Z,35.70
2018-01-28T21:29:44.016Z,35.53
2018-01-28T21:32:10.831Z,34.40
2018-01-28T21:34:37.567Z,33.30
2018-01-28T21:37:04.335Z,35.20
2018-01-28T21:39:31.068Z,34.07
2018-01-28T21:41:57.902Z,35.30
2018-01-28T21:44:24.631Z,35.60
2018-01-28T21:46:51.372Z,33.63
2018-01-28T21:49:18.094Z,36.67
2018-01-28T21:51:44.835Z,36.50
2018-01-28T21:54:11.586Z,35.23
2018-01-28T21:56:38.336Z,34.90
2018-01-28T21:59:05.342Z,36.80
2018-01-28T22:01:32.072Z,31.17
2018-01-28T22:03:58.814Z,32.77
2018-01-28T22:06:25.582Z,31.00
2018-01-28T22:08:52.322Z,29.33
2018-01-28T22:11:19.084Z,30.90
2018-01-28T22:13:45.929Z,31.60
2018-01-28T22:16:12.681Z,29.27
2018-01-28T22:18:39.414Z,31.17
2018-01-28T22:21:06.159Z,30.77
2018-01-28T22:23:32.877Z,29.30
2018-01-28T22:25:59.600Z,27.57
2018-01-28T22:28:26.336Z,30.83
2018-01-28T22:30:53.080Z,31.20
2018-01-28T22:33:19.818Z,29.20
2018-01-28T22:35:46.552Z,30.37
2018-01-28T22:38:13.301Z,30.67
2018-01-28T22:40:40.513Z,28.90
2018-01-28T22:43:07.350Z,31.27
2018-01-28T22:45:34.082Z,30.33
2018-01-28T22:48:00.803Z,29.03
2018-01-28T22:50:27.556Z,28.60
2018-01-28T22:52:54.265Z,28.37
2018-01-28T22:55:20.993Z,29.57
2018-01-28T22:57:47.802Z,26.77
2018-01-28T23:00:14.525Z,26.60
2018-01-28T23:02:41.244Z,28.03
2018-01-28T23:05:07.965Z,27.37
2018-01-28T23:07:34.698Z,28.97
2018-01-28T23:10:01.408Z,29.60
2018-01-28T23:12:28.122Z,27.50
2018-01-28T23:14:54.870Z,24.83
2018-01-28T23:17:21.603Z,27.20
2018-01-28T23:19:48.355Z,26.57
2018-01-28T23:22:15.071Z,26.43
2018-01-28T23:24:41.801Z,26.23
2018-01-28T23:27:08.520Z,25.27
2018-01-28T23:29:35.237Z,28.07
2018-01-28T23:32:02.885Z,28.50
2018-01-28T23:34:29.611Z,27.60
2018-01-28T23:36:56.367Z,26.90
2018-01-28T23:39:23.106Z,25.00
2018-01-28T23:41:49.813Z,26.07
2018-01-28T23:44:16.538Z,27.23
2018-01-28T23:46:43.246Z,26.27
2018-01-28T23:49:09.965Z,26.07
2018-01-28T23:51:36.669Z,26.73
2018-01-28T23:54:03.467Z,27.20
2018-01-28T23:56:30.377Z,25.97
2018-01-28T23:58:57.085Z,24.87
